Time;durP1;ratioP1;P1;durP2;ratioP2;P2;SDS_P1;SDS_P2;PMS_P1;PMS_P2;Temp;Humidity;BMP_temperature;BMP_pressure;BME280_temperature;BME280_humidity;BME280_pressure;Samples;Min_cycle;Max_cycle;Signal;HPM_P1;HPM_P2
2024/03/20 00:00:54;;;;;;;11.57;3.35;;;11.90;99.90;;;;;;5005956;28;20161;-68
2024/03/20 00:03:19;;;;;;;13.73;2.60;;;11.80;99.90;;;;;;5005315;28;20494;-67
2024/03/20 00:05:45;;;;;;;10.25;2.50;;;11.80;99.90;;;;;;5004924;28;20107;-68
2024/03/20 00:08:11;;;;;;;8.98;2.75;;;11.80;99.90;;;;;;5004994;28;20056;-69
2024/03/20 00:10:37;;;;;;;16.25;2.80;;;11.80;99.90;;;;;;5006641;28;20164;-68
2024/03/20 00:13:03;;;;;;;13.32;2.70;;;11.70;99.90;;;;;;5006603;28;20053;-69
2024/03/20 00:15:29;;;;;;;13.45;2.92;;;11.80;99.90;;;;;;5006231;28;20092;-69
2024/03/20 00:17:55;;;;;;;12.20;3.67;;;11.80;99.90;;;;;;5024009;28;20571;-69
2024/03/20 00:20:21;;;;;;;9.23;3.22;;;11.70;99.90;;;;;;5005234;28;20050;-68
2024/03/20 00:22:47;;;;;;;12.60;2.78;;;11.70;99.90;;;;;;5006699;28;20053;-69
2024/03/20 00:25:13;;;;;;;11.30;3.05;;;11.70;99.90;;;;;;5003968;28;20050;-68
2024/03/20 00:27:39;;;;;;;17.77;3.13;;;11.80;99.90;;;;;;5008658;28;20050;-68
2024/03/20 00:30:06;;;;;;;12.68;2.70;;;11.80;99.90;;;;;;5024427;28;20508;-69
2024/03/20 00:32:32;;;;;;;10.23;3.45;;;11.80;99.90;;;;;;5004375;28;20077;-69
2024/03/20 00:34:58;;;;;;;10.40;3.17;;;11.80;99.90;;;;;;5011077;28;20069;-70
2024/03/20 00:37:24;;;;;;;13.45;5.35;;;11.80;99.90;;;;;;5002636;28;20050;-69
2024/03/20 00:39:50;;;;;;;15.23;3.38;;;11.80;99.90;;;;;;5008484;28;20069;-70
2024/03/20 00:42:15;;;;;;;13.57;3.38;;;11.80;99.90;;;;;;5009963;28;20052;-68
2024/03/20 00:44:41;;;;;;;11.07;3.03;;;11.80;99.90;;;;;;5027817;28;20147;-68
2024/03/20 00:47:07;;;;;;;12.10;3.45;;;11.80;99.90;;;;;;5012905;28;20151;-69
2024/03/20 00:49:33;;;;;;;11.38;3.08;;;11.80;99.90;;;;;;5013134;28;20372;-68
2024/03/20 00:51:59;;;;;;;9.52;3.30;;;11.80;99.90;;;;;;5009087;28;20046;-68
2024/03/20 00:54:25;;;;;;;13.63;2.80;;;11.80;99.90;;;;;;5012396;28;20133;-68
2024/03/20 00:56:51;;;;;;;13.10;3.97;;;11.80;99.90;;;;;;5008970;28;20042;-69
2024/03/20 00:59:17;;;;;;;11.38;3.72;;;11.80;99.90;;;;;;5005986;28;20067;-68
2024/03/20 01:01:43;;;;;;;13.50;2.85;;;11.80;99.90;;;;;;5011238;28;20042;-68
2024/03/20 01:04:09;;;;;;;9.07;2.72;;;11.80;99.90;;;;;;5011729;28;20120;-68
2024/03/20 01:06:35;;;;;;;14.18;5.50;;;11.80;99.90;;;;;;5010197;28;20141;-68
2024/03/20 01:09:01;;;;;;;12.48;2.92;;;11.80;99.90;;;;;;5013226;28;20058;-69
2024/03/20 01:11:27;;;;;;;10.20;3.05;;;11.80;99.90;;;;;;5023838;28;20088;-68
2024/03/20 01:13:52;;;;;;;16.98;3.72;;;11.80;99.90;;;;;;5006889;28;20050;-69
2024/03/20 01:16:18;;;;;;;15.82;2.72;;;11.80;99.90;;;;;;5014237;28;20420;-68
2024/03/20 01:18:44;;;;;;;9.60;3.13;;;11.80;99.90;;;;;;5011819;28;20520;-68
2024/03/20 01:21:10;;;;;;;13.10;3.38;;;11.80;99.90;;;;;;5010481;28;20109;-68
2024/03/20 01:23:36;;;;;;;18.38;5.97;;;11.80;99.90;;;;;;5012149;28;20125;-69
2024/03/20 01:26:02;;;;;;;13.25;2.88;;;11.80;99.90;;;;;;5025678;28;20046;-68
2024/03/20 01:28:28;;;;;;;8.90;2.88;;;11.80;99.90;;;;;;5012019;28;20417;-68
2024/03/20 01:30:55;;;;;;;10.85;2.88;;;11.70;99.90;;;;;;5011859;28;20053;-67
2024/03/20 01:33:21;;;;;;;16.35;4.35;;;11.70;99.90;;;;;;5011500;28;20042;-67
2024/03/20 01:35:47;;;;;;;7.38;3.10;;;11.70;99.90;;;;;;5010661;28;20042;-68
2024/03/20 01:38:13;;;;;;;17.30;3.85;;;11.60;99.90;;;;;;5016427;28;20512;-69
2024/03/20 01:40:40;;;;;;;10.48;3.47;;;11.60;99.90;;;;;;5011835;28;20134;-69
2024/03/20 01:43:17;;;;;;;19.27;3.25;;;11.60;99.90;;;;;;5013566;28;20120;-69
2024/03/20 01:45:42;;;;;;;17.50;3.80;;;11.60;99.90;;;;;;5011784;28;20046;-69
2024/03/20 01:48:08;;;;;;;11.45;3.70;;;11.60;99.90;;;;;;5012634;28;20068;-68
2024/03/20 01:50:34;;;;;;;11.38;3.00;;;11.60;99.90;;;;;;5009428;28;20424;-68
2024/03/20 01:53:03;;;;;;;12.43;3.70;;;11.60;99.90;;;;;;5011378;28;20053;-69
2024/03/20 01:55:29;;;;;;;13.75;3.50;;;11.60;99.90;;;;;;4994851;28;20489;-69
2024/03/20 01:57:55;;;;;;;9.52;2.92;;;11.60;99.90;;;;;;5012637;28;20369;-68
2024/03/20 02:00:23;;;;;;;12.95;3.50;;;11.60;99.90;;;;;;5011161;28;20645;-68
2024/03/20 02:02:50;;;;;;;9.95;3.05;;;11.60;99.90;;;;;;5012113;28;20061;-69
2024/03/20 02:05:17;;;;;;;9.63;3.20;;;11.70;99.90;;;;;;5010838;28;20065;-69
2024/03/20 02:07:43;;;;;;;11.27;3.22;;;11.60;99.90;;;;;;5012303;28;20402;-69
2024/03/20 02:10:09;;;;;;;14.68;3.28;;;11.60;99.90;;;;;;5010714;28;20066;-68
2024/03/20 02:12:35;;;;;;;9.77;3.28;;;11.60;99.90;;;;;;5011626;28;20289;-68
2024/03/20 02:15:08;;;;;;;7.50;3.38;;;11.60;99.90;;;;;;5008930;28;20100;-69
2024/03/20 02:17:36;;;;;;;11.52;3.30;;;11.60;99.90;;;;;;5008445;28;20057;-68
2024/03/20 02:20:04;;;;;;;10.82;3.10;;;11.50;99.90;;;;;;5026943;28;20496;-68
2024/03/20 02:22:43;;;;;;;9.25;2.97;;;11.50;99.90;;;;;;5007789;28;20054;-68
2024/03/20 02:25:09;;;;;;;12.43;3.35;;;11.50;99.90;;;;;;5007157;28;20050;-68
2024/03/20 02:27:36;;;;;;;12.23;3.63;;;11.50;99.90;;;;;;4995028;28;20049;-68
2024/03/20 02:30:06;;;;;;;13.15;3.13;;;11.50;99.90;;;;;;5014447;28;20050;-69
2024/03/20 02:32:32;;;;;;;14.43;3.75;;;11.40;99.90;;;;;;5009586;28;20046;-69
2024/03/20 02:34:58;;;;;;;11.27;2.95;;;11.40;99.90;;;;;;5008701;28;20052;-68
2024/03/20 02:37:24;;;;;;;7.82;3.00;;;11.40;99.90;;;;;;4999490;28;20058;-69
2024/03/20 02:39:49;;;;;;;8.60;3.03;;;11.30;99.90;;;;;;5008889;28;20524;-69
2024/03/20 02:42:15;;;;;;;10.85;3.28;;;11.30;99.90;;;;;;5009464;28;20093;-69
2024/03/20 02:44:41;;;;;;;11.68;3.75;;;11.30;99.90;;;;;;5009745;28;20460;-69
2024/03/20 02:47:07;;;;;;;15.73;5.18;;;11.30;99.90;;;;;;4991874;28;20050;-70
2024/03/20 02:49:33;;;;;;;16.98;3.70;;;11.30;99.90;;;;;;5007366;28;20062;-69
2024/03/20 02:51:59;;;;;;;10.52;3.60;;;11.20;99.90;;;;;;5007940;28;20054;-69
2024/03/20 02:54:24;;;;;;;8.27;2.97;;;11.30;99.90;;;;;;5004159;28;20113;-69
2024/03/20 02:56:50;;;;;;;17.60;3.88;;;11.20;99.90;;;;;;5002128;28;20085;-69
2024/03/20 02:59:16;;;;;;;6.50;2.45;;;11.20;99.90;;;;;;5011546;28;20046;-68
2024/03/20 03:01:42;;;;;;;11.63;3.22;;;11.20;99.90;;;;;;5013712;28;20046;-70
2024/03/20 03:04:08;;;;;;;15.77;3.28;;;11.20;99.90;;;;;;5011381;28;20117;-69
2024/03/20 03:06:33;;;;;;;8.80;3.00;;;11.20;99.90;;;;;;5015500;28;20132;-68
2024/03/20 03:08:59;;;;;;;10.35;3.45;;;11.20;99.90;;;;;;5006724;28;20484;-68
2024/03/20 03:11:26;;;;;;;10.70;3.30;;;11.20;99.90;;;;;;5011811;28;20484;-69
2024/03/20 03:13:53;;;;;;;10.13;2.97;;;11.20;99.90;;;;;;5010492;28;20046;-68
2024/03/20 03:16:19;;;;;;;11.05;3.42;;;11.20;99.90;;;;;;5014800;28;20060;-68
2024/03/20 03:18:44;;;;;;;11.68;3.63;;;11.10;99.90;;;;;;4993779;28;20049;-69
2024/03/20 03:21:10;;;;;;;6.47;3.53;;;11.10;99.90;;;;;;5013477;28;20518;-68
2024/03/20 03:23:36;;;;;;;9.32;2.63;;;11.10;99.90;;;;;;5004676;28;20103;-68
2024/03/20 03:26:03;;;;;;;14.43;3.28;;;11.10;99.90;;;;;;5007886;28;20045;-68
2024/03/20 03:28:30;;;;;;;10.55;2.70;;;11.10;99.90;;;;;;5006873;28;20049;-68
2024/03/20 03:30:56;;;;;;;13.45;3.85;;;11.10;99.90;;;;;;5023397;28;20050;-68
2024/03/20 03:33:21;;;;;;;12.10;4.15;;;11.00;99.90;;;;;;5006655;28;20050;-68
2024/03/20 03:35:47;;;;;;;14.45;2.78;;;11.10;99.90;;;;;;5006457;28;20192;-68
2024/03/20 03:38:13;;;;;;;10.35;2.83;;;11.10;99.90;;;;;;5006094;28;20050;-68
2024/03/20 03:40:39;;;;;;;9.75;3.17;;;11.10;99.90;;;;;;5005779;28;20089;-67
2024/03/20 03:43:05;;;;;;;8.50;3.90;;;11.10;99.90;;;;;;5007754;28;20443;-68
2024/03/20 03:45:31;;;;;;;12.00;3.03;;;11.20;99.90;;;;;;5021381;28;20045;-68
2024/03/20 03:47:57;;;;;;;12.40;3.35;;;11.20;99.90;;;;;;5023346;28;20061;-68
2024/03/20 03:50:23;;;;;;;12.80;4.53;;;11.20;99.90;;;;;;5021254;28;20075;-68
2024/03/20 03:52:50;;;;;;;13.95;3.38;;;11.20;99.90;;;;;;5006117;28;20049;-68
2024/03/20 03:55:15;;;;;;;14.75;4.00;;;11.20;99.90;;;;;;5006040;28;20116;-68
2024/03/20 03:57:41;;;;;;;14.30;3.55;;;11.20;99.90;;;;;;5004782;28;20556;-68
2024/03/20 04:00:10;;;;;;;10.63;3.33;;;11.20;99.90;;;;;;4988419;28;20253;-68
2024/03/20 04:02:36;;;;;;;11.93;4.00;;;11.20;99.90;;;;;;5008071;28;20456;-68
2024/03/20 04:05:04;;;;;;;12.55;3.38;;;11.20;99.90;;;;;;5004679;28;20081;-68
2024/03/20 04:07:30;;;;;;;13.05;3.97;;;11.20;99.90;;;;;;4992836;28;20049;-69
2024/03/20 04:09:56;;;;;;;9.32;3.20;;;11.20;99.90;;;;;;5002595;28;20539;-68
2024/03/20 04:12:22;;;;;;;15.07;3.85;;;11.20;99.90;;;;;;5003668;28;20355;-67
2024/03/20 04:14:48;;;;;;;14.68;4.15;;;11.20;99.90;;;;;;4996531;28;20045;-68
2024/03/20 04:17:14;;;;;;;17.55;4.82;;;11.20;99.90;;;;;;4987489;28;20056;-69
2024/03/20 04:19:40;;;;;;;13.40;4.53;;;11.20;99.90;;;;;;5006503;28;20071;-69
2024/03/20 04:22:06;;;;;;;9.07;4.50;;;11.10;99.90;;;;;;5005207;28;20244;-70
2024/03/20 04:24:32;;;;;;;16.42;5.85;;;11.10;99.90;;;;;;5003669;28;20054;-69
2024/03/20 04:26:57;;;;;;;15.68;5.60;;;11.10;99.90;;;;;;5005237;28;20050;-67
2024/03/20 04:29:23;;;;;;;20.67;7.15;;;11.10;99.90;;;;;;5004534;28;20058;-68
2024/03/20 04:31:49;;;;;;;13.65;5.97;;;11.00;99.90;;;;;;4987402;28;20057;-68
2024/03/20 04:34:16;;;;;;;13.30;5.32;;;11.00;99.90;;;;;;4988025;28;20061;-68
2024/03/20 04:36:41;;;;;;;14.50;5.20;;;11.00;99.90;;;;;;5005199;28;20053;-68
2024/03/20 04:39:07;;;;;;;14.13;5.38;;;11.00;99.90;;;;;;5004989;28;20096;-67
2024/03/20 04:41:33;;;;;;;9.60;4.75;;;11.00;99.90;;;;;;5004988;28;20456;-69
2024/03/20 04:43:59;;;;;;;12.75;6.15;;;11.00;99.90;;;;;;5004970;28;20058;-68
2024/03/20 04:46:25;;;;;;;22.10;5.93;;;11.00;99.90;;;;;;5003548;28;20464;-68
2024/03/20 04:48:51;;;;;;;11.35;5.88;;;11.00;99.90;;;;;;5005235;28;20149;-69
2024/03/20 04:51:17;;;;;;;11.15;5.40;;;11.00;99.90;;;;;;5005586;28;20092;-69
2024/03/20 04:53:43;;;;;;;17.33;6.75;;;11.00;99.90;;;;;;5006431;28;20464;-69
2024/03/20 04:56:08;;;;;;;12.60;5.88;;;11.10;99.90;;;;;;5015410;28;20839;-69
2024/03/20 04:58:34;;;;;;;17.67;5.75;;;11.10;99.90;;;;;;5005558;28;20061;-68
2024/03/20 05:01:00;;;;;;;12.35;5.95;;;11.10;99.90;;;;;;5002785;28;20042;-69
2024/03/20 05:03:27;;;;;;;13.85;6.10;;;11.10;99.90;;;;;;5019478;28;20070;-68
2024/03/20 05:05:52;;;;;;;14.40;6.20;;;11.00;99.90;;;;;;5018526;28;20050;-68
2024/03/20 05:08:18;;;;;;;11.18;6.30;;;11.00;99.90;;;;;;5004679;28;20546;-68
2024/03/20 05:10:44;;;;;;;22.17;6.55;;;11.00;99.90;;;;;;5005111;28;20288;-69
2024/03/20 05:13:10;;;;;;;16.50;6.30;;;11.00;99.90;;;;;;5005945;28;20056;-69
2024/03/20 05:15:39;;;;;;;14.88;6.18;;;11.00;99.90;;;;;;5003328;28;20115;-68
2024/03/20 05:18:05;;;;;;;14.27;5.63;;;11.00;99.90;;;;;;5004556;28;20062;-69
2024/03/20 05:20:31;;;;;;;12.43;5.72;;;11.00;99.90;;;;;;5006071;28;20671;-69
2024/03/20 05:22:57;;;;;;;11.57;5.80;;;10.90;99.90;;;;;;5008985;28;20068;-68
2024/03/20 05:25:22;;;;;;;14.80;5.80;;;11.00;99.90;;;;;;5008381;28;20045;-68
2024/03/20 05:27:48;;;;;;;13.93;6.20;;;11.00;99.90;;;;;;5008977;28;20103;-68
2024/03/20 05:30:14;;;;;;;15.60;6.25;;;11.00;99.90;;;;;;5006680;28;20531;-69
2024/03/20 05:32:40;;;;;;;14.90;5.90;;;11.00;99.90;;;;;;5008356;28;20042;-69
2024/03/20 05:35:06;;;;;;;19.48;5.60;;;11.00;99.90;;;;;;4990202;28;20075;-69
2024/03/20 05:37:32;;;;;;;20.63;5.97;;;10.90;99.90;;;;;;5008301;28;20050;-68
2024/03/20 05:39:58;;;;;;;16.80;6.60;;;10.90;99.90;;;;;;5007478;28;20057;-68
2024/03/20 05:42:23;;;;;;;9.95;5.20;;;10.90;99.90;;;;;;5007024;28;20349;-68
2024/03/20 05:44:49;;;;;;;21.70;6.28;;;10.90;99.90;;;;;;5023563;28;20470;-69
2024/03/20 05:47:15;;;;;;;15.88;6.82;;;10.90;99.90;;;;;;5007952;28;20054;-70
2024/03/20 05:49:43;;;;;;;14.90;6.75;;;10.90;99.90;;;;;;5007201;28;20154;-68
2024/03/20 05:52:08;;;;;;;12.60;5.85;;;10.90;99.90;;;;;;5008022;28;20060;-68
2024/03/20 05:54:34;;;;;;;12.95;5.90;;;10.90;99.90;;;;;;5006452;28;20049;-68
2024/03/20 05:57:00;;;;;;;13.95;5.90;;;10.90;99.90;;;;;;5007651;28;20050;-68
2024/03/20 05:59:26;;;;;;;16.13;5.82;;;10.90;99.90;;;;;;5006315;28;20402;-68
2024/03/20 06:01:52;;;;;;;17.45;6.65;;;10.90;99.90;;;;;;5007645;28;20057;-69
2024/03/20 06:04:18;;;;;;;10.23;5.55;;;10.90;99.90;;;;;;5004787;28;20049;-69
2024/03/20 06:06:45;;;;;;;16.20;6.15;;;10.90;99.90;;;;;;5006817;28;20354;-68
2024/03/20 06:09:13;;;;;;;12.80;5.97;;;10.90;99.90;;;;;;5004394;28;20053;-69
2024/03/20 06:11:42;;;;;;;10.40;6.07;;;11.00;99.90;;;;;;5007586;28;20752;-67
2024/03/20 06:14:08;;;;;;;15.68;6.43;;;10.90;99.90;;;;;;5006072;28;20389;-68
2024/03/20 06:16:34;;;;;;;14.93;6.47;;;10.90;99.90;;;;;;5007320;28;20046;-69
2024/03/20 06:18:59;;;;;;;13.05;5.75;;;10.90;99.90;;;;;;5005144;28;20092;-68
2024/03/20 06:21:25;;;;;;;12.80;6.10;;;11.00;99.90;;;;;;5007098;28;20077;-67
2024/03/20 06:23:51;;;;;;;15.35;6.07;;;11.00;99.90;;;;;;5007091;28;20497;-68
2024/03/20 06:26:17;;;;;;;14.48;6.13;;;10.90;99.90;;;;;;5007775;28;20096;-68
2024/03/20 06:28:43;;;;;;;11.75;5.93;;;11.00;99.90;;;;;;4991746;28;20049;-68
2024/03/20 06:31:09;;;;;;;22.17;6.72;;;11.00;99.90;;;;;;5005401;28;20046;-68
2024/03/20 06:33:35;;;;;;;22.85;6.38;;;10.90;99.90;;;;;;5005906;28;20058;-68
2024/03/20 06:36:02;;;;;;;14.02;5.57;;;11.00;99.90;;;;;;5008428;28;20073;-69
2024/03/20 06:38:29;;;;;;;11.90;5.97;;;10.90;99.90;;;;;;5005511;28;20065;-68
2024/03/20 06:40:55;;;;;;;18.70;6.00;;;11.00;99.90;;;;;;5005319;28;20061;-68
2024/03/20 06:43:22;;;;;;;17.30;5.82;;;11.00;99.90;;;;;;5005519;28;20115;-69
2024/03/20 06:45:48;;;;;;;18.75;6.35;;;11.00;99.90;;;;;;5004124;28;20049;-68
2024/03/20 06:48:17;;;;;;;13.70;6.93;;;11.10;99.90;;;;;;5005969;28;20068;-68
2024/03/20 06:50:47;;;;;;;22.13;6.85;;;11.00;99.90;;;;;;5005881;28;20373;-69
2024/03/20 06:53:14;;;;;;;21.30;6.30;;;11.00;99.90;;;;;;4990005;28;20432;-69
2024/03/20 06:55:43;;;;;;;14.68;5.53;;;11.00;99.90;;;;;;4975387;28;20054;-68
2024/03/20 06:58:11;;;;;;;13.75;4.95;;;11.00;99.90;;;;;;5006356;28;20096;-68
2024/03/20 07:00:37;;;;;;;15.55;6.70;;;11.10;99.90;;;;;;5006776;28;20050;-70
2024/03/20 07:03:04;;;;;;;14.40;5.30;;;11.10;99.90;;;;;;5020405;28;20489;-69
2024/03/20 07:05:30;;;;;;;7.68;4.30;;;11.10;99.90;;;;;;5007933;28;20408;-68
2024/03/20 07:07:56;;;;;;;14.32;5.68;;;11.10;99.90;;;;;;5008332;28;20069;-68
2024/03/20 07:10:21;;;;;;;11.68;5.10;;;11.20;99.90;;;;;;5013313;28;20061;-69
2024/03/20 07:12:47;;;;;;;15.30;4.90;;;11.20;99.90;;;;;;5009584;28;20127;-68
2024/03/20 07:15:13;;;;;;;16.30;4.78;;;11.30;99.90;;;;;;5007899;28;20386;-69
2024/03/20 07:17:39;;;;;;;12.40;3.70;;;11.30;99.90;;;;;;5007062;28;20046;-68
2024/03/20 07:20:09;;;;;;;14.07;5.43;;;11.30;99.90;;;;;;5009030;28;20073;-68
2024/03/20 07:22:38;;;;;;;13.02;4.57;;;11.40;99.90;;;;;;5021745;28;20107;-69
2024/03/20 07:25:07;;;;;;;11.40;4.85;;;11.40;99.90;;;;;;5020970;28;20622;-68
2024/03/20 07:27:36;;;;;;;9.90;4.03;;;11.50;99.90;;;;;;5005504;28;20239;-70
2024/03/20 07:30:06;;;;;;;16.23;5.05;;;11.50;99.90;;;;;;4999228;28;20428;-70
2024/03/20 07:32:32;;;;;;;19.17;5.43;;;11.50;99.90;;;;;;5000249;28;20053;-70
2024/03/20 07:34:58;;;;;;;22.50;5.38;;;11.60;99.90;;;;;;5001800;28;20046;-70
2024/03/20 07:37:25;;;;;;;11.20;4.22;;;11.60;99.90;;;;;;5003691;28;20057;-68
2024/03/20 07:39:51;;;;;;;21.27;5.65;;;11.70;99.90;;;;;;5010902;28;20532;-70
2024/03/20 07:42:17;;;;;;;8.93;3.85;;;11.70;99.90;;;;;;5005405;28;20093;-70
2024/03/20 07:44:42;;;;;;;13.20;4.28;;;11.80;99.90;;;;;;4998571;28;20043;-69
2024/03/20 07:47:08;;;;;;;13.77;3.58;;;11.90;99.90;;;;;;5001728;28;20065;-68
2024/03/20 07:49:34;;;;;;;11.13;4.68;;;11.90;99.90;;;;;;5002292;28;20054;-69
2024/03/20 07:52:00;;;;;;;14.00;3.72;;;12.00;99.90;;;;;;4996589;28;20046;-68
2024/03/20 07:54:27;;;;;;;10.93;3.70;;;12.00;99.90;;;;;;5003407;28;20133;-69
2024/03/20 07:56:56;;;;;;;10.57;3.65;;;12.10;99.90;;;;;;5002702;28;20042;-64
2024/03/20 07:59:23;;;;;;;10.70;3.17;;;12.20;99.90;;;;;;4982783;28;20135;-69
2024/03/20 08:01:50;;;;;;;19.30;4.10;;;12.20;99.90;;;;;;4986644;28;20053;-68
2024/03/20 08:04:15;;;;;;;11.60;3.30;;;12.30;99.90;;;;;;5003261;28;20050;-68
2024/03/20 08:06:41;;;;;;;5.57;3.17;;;12.30;99.90;;;;;;5004668;28;20050;-69
2024/03/20 08:09:08;;;;;;;10.60;3.67;;;12.40;99.90;;;;;;5004320;28;20425;-68
2024/03/20 08:11:34;;;;;;;10.65;3.50;;;12.40;99.90;;;;;;4996379;28;20057;-70
2024/03/20 08:14:07;;;;;;;9.70;3.58;;;12.50;99.90;;;;;;5000812;28;20493;-69
2024/03/20 08:16:37;;;;;;;9.40;3.50;;;12.40;99.90;;;;;;4999064;28;20402;-69
2024/03/20 08:19:09;;;;;;;9.93;3.45;;;12.50;99.90;;;;;;5005468;28;20358;-69
2024/03/20 08:21:35;;;;;;;15.63;3.03;;;12.50;99.90;;;;;;4999856;28;20454;-68
2024/03/20 08:24:04;;;;;;;7.90;2.80;;;12.50;99.90;;;;;;5004815;28;20065;-69
2024/03/20 08:26:30;;;;;;;8.98;3.63;;;12.50;99.90;;;;;;5001785;28;20086;-68
2024/03/20 08:28:56;;;;;;;15.43;3.47;;;12.50;99.90;;;;;;5005841;28;20076;-70
2024/03/20 08:31:22;;;;;;;33.70;9.20;;;12.60;99.90;;;;;;5002900;28;20493;-69
2024/03/20 08:33:48;;;;;;;15.27;4.63;;;12.60;99.90;;;;;;5020967;28;20050;-69
2024/03/20 08:36:14;;;;;;;9.00;3.13;;;12.60;99.90;;;;;;5004932;28;20497;-62
2024/03/20 08:38:40;;;;;;;13.40;7.32;;;12.60;99.90;;;;;;4989696;28;20121;-70
2024/03/20 08:41:06;;;;;;;10.35;3.85;;;12.70;99.90;;;;;;5003456;28;20162;-69
2024/03/20 08:43:33;;;;;;;6.70;2.80;;;12.70;99.90;;;;;;4988259;28;20513;-69
2024/03/20 08:46:00;;;;;;;6.10;2.92;;;12.80;99.90;;;;;;4997338;28;20054;-70
2024/03/20 08:48:26;;;;;;;7.47;2.80;;;12.90;99.90;;;;;;5001228;28;20054;-69
2024/03/20 08:50:52;;;;;;;13.20;3.25;;;12.90;99.90;;;;;;5005003;28;20171;-70
2024/03/20 08:53:18;;;;;;;7.30;2.60;;;13.00;99.90;;;;;;5004678;28;20129;-69
2024/03/20 08:55:44;;;;;;;7.40;3.00;;;13.00;99.90;;;;;;5021034;28;20045;-69
2024/03/20 08:58:10;;;;;;;9.02;3.15;;;13.10;99.90;;;;;;5008559;28;20050;-70
2024/03/20 09:00:35;;;;;;;13.82;3.78;;;13.10;99.90;;;;;;5009240;28;20167;-69
2024/03/20 09:03:04;;;;;;;9.10;2.40;;;13.10;99.90;;;;;;5008639;28;20056;-68
2024/03/20 09:05:31;;;;;;;11.05;3.22;;;13.10;99.90;;;;;;5007682;28;20069;-68
2024/03/20 09:07:57;;;;;;;8.45;2.30;;;13.20;99.90;;;;;;5010137;28;20050;-69
2024/03/20 09:10:23;;;;;;;10.02;3.00;;;13.20;99.90;;;;;;4990913;28;20058;-68
2024/03/20 09:12:49;;;;;;;10.50;2.25;;;13.20;99.90;;;;;;5010272;28;20501;-68
2024/03/20 09:15:15;;;;;;;10.30;2.60;;;13.30;99.90;;;;;;5007547;28;20065;-69
2024/03/20 09:17:41;;;;;;;15.55;2.75;;;13.30;99.90;;;;;;5010529;28;20125;-69
2024/03/20 09:20:16;;;;;;;4.53;1.90;;;13.50;99.90;;;;;;4983854;28;20124;-68
2024/03/20 09:22:43;;;;;;;12.60;3.63;;;13.60;99.90;;;;;;5008176;28;20549;-68
2024/03/20 09:25:09;;;;;;;7.75;2.60;;;13.60;99.90;;;;;;5001207;28;20050;-69
2024/03/20 09:27:35;;;;;;;9.98;2.35;;;13.70;99.90;;;;;;5008825;28;20141;-68
2024/03/20 09:30:02;;;;;;;8.07;2.55;;;13.80;99.90;;;;;;5010240;28;20050;-71
2024/03/20 09:32:30;;;;;;;15.77;3.40;;;13.80;99.90;;;;;;5005772;28;20061;-68
2024/03/20 09:34:58;;;;;;;7.78;2.03;;;13.90;99.90;;;;;;5010495;28;20065;-68
2024/03/20 09:37:27;;;;;;;8.20;2.00;;;14.00;99.90;;;;;;5021282;28;20080;-69
2024/03/20 09:39:58;;;;;;;9.25;3.08;;;14.00;99.90;;;;;;5006204;28;20053;-68
2024/03/20 09:42:23;;;;;;;15.60;2.58;;;14.10;99.90;;;;;;5025122;28;20057;-70
2024/03/20 09:44:50;;;;;;;10.55;3.15;;;14.10;99.90;;;;;;5008034;28;20610;-68
2024/03/20 09:47:16;;;;;;;13.38;2.78;;;14.20;99.90;;;;;;5006961;28;20060;-68
2024/03/20 09:49:46;;;;;;;9.45;3.35;;;14.30;99.90;;;;;;4987903;28;20069;-68
2024/03/20 09:52:13;;;;;;;7.93;2.50;;;14.40;99.90;;;;;;5004394;28;20046;-68
2024/03/20 09:54:40;;;;;;;6.82;1.90;;;14.50;99.90;;;;;;5007605;28;20057;-68
2024/03/20 09:57:06;;;;;;;9.20;2.58;;;14.60;99.90;;;;;;4997939;28;20146;-62
2024/03/20 09:59:32;;;;;;;14.60;2.80;;;14.70;99.90;;;;;;5005810;28;20650;-67
2024/03/20 10:01:58;;;;;;;7.13;2.45;;;14.80;99.90;;;;;;5005314;28;20054;-70
2024/03/20 10:04:27;;;;;;;26.17;3.22;;;14.80;99.90;;;;;;4998057;28;20046;-68
2024/03/20 10:06:53;;;;;;;10.63;2.42;;;14.90;99.90;;;;;;5011821;28;20057;-68
2024/03/20 10:09:20;;;;;;;7.45;2.88;;;14.90;99.90;;;;;;5023634;28;20088;-67
2024/03/20 10:11:47;;;;;;;16.25;2.35;;;14.80;99.90;;;;;;5008659;28;21315;-68
2024/03/20 10:14:13;;;;;;;13.45;3.22;;;14.80;99.90;;;;;;5006664;28;20423;-69
2024/03/20 10:16:40;;;;;;;13.80;3.33;;;14.80;99.90;;;;;;5005871;28;20093;-69
2024/03/20 10:19:05;;;;;;;8.40;2.70;;;14.80;99.90;;;;;;5007689;28;20058;-68
2024/03/20 10:21:32;;;;;;;8.55;2.45;;;14.90;99.90;;;;;;5000812;28;20204;-68
2024/03/20 10:23:58;;;;;;;19.15;2.60;;;14.90;99.90;;;;;;5008350;28;20743;-68
2024/03/20 10:26:24;;;;;;;18.05;4.05;;;14.90;99.90;;;;;;5006320;28;20054;-69
2024/03/20 10:28:51;;;;;;;11.38;1.98;;;14.90;99.90;;;;;;5009319;28;20477;-69
2024/03/20 10:31:20;;;;;;;8.88;2.58;;;15.00;99.90;;;;;;5006154;28;20161;-72
2024/03/20 10:33:47;;;;;;;7.00;2.58;;;15.00;99.90;;;;;;4989885;28;20049;-68
2024/03/20 10:36:15;;;;;;;7.07;2.85;;;15.00;99.90;;;;;;5000873;28;20057;-68
2024/03/20 10:38:41;;;;;;;10.00;3.97;;;15.00;99.90;;;;;;5004957;28;20041;-68
2024/03/20 10:41:07;;;;;;;8.48;2.88;;;15.10;99.90;;;;;;5005386;28;20145;-69
2024/03/20 10:43:34;;;;;;;8.23;2.67;;;15.10;99.90;;;;;;4990327;28;20053;-69
2024/03/20 10:46:00;;;;;;;13.20;3.45;;;15.10;99.90;;;;;;4989076;28;20050;-69
2024/03/20 10:48:26;;;;;;;8.80;2.33;;;15.10;99.90;;;;;;4996245;28;20050;-67
2024/03/20 10:50:55;;;;;;;10.98;2.95;;;15.20;99.90;;;;;;5007484;28;20648;-68
2024/03/20 10:53:22;;;;;;;13.30;3.90;;;15.30;99.90;;;;;;5008237;28;20058;-69
2024/03/20 10:55:52;;;;;;;8.82;2.88;;;15.40;99.90;;;;;;5014707;28;20384;-69
2024/03/20 10:58:18;;;;;;;7.50;2.72;;;15.30;99.90;;;;;;5007757;28;20053;-68
2024/03/20 11:00:54;;;;;;;15.05;3.88;;;15.50;99.90;;;;;;5005860;28;20181;-69
2024/03/20 11:03:39;;;;;;;11.88;3.45;;;15.50;99.90;;;;;;4986985;28;20061;-69
2024/03/20 11:06:30;;;;;;;14.40;2.63;;;15.50;99.90;;;;;;5006780;28;20050;-69
2024/03/20 11:09:22;;;;;;;8.73;2.33;;;15.50;99.90;;;;;;4998645;28;20057;-67
2024/03/20 11:11:48;;;;;;;11.25;2.53;;;15.50;99.90;;;;;;5016964;28;20382;-69
2024/03/20 11:14:26;;;;;;;13.88;2.75;;;15.50;99.90;;;;;;4995335;28;20386;-68
2024/03/20 11:17:00;;;;;;;8.77;2.75;;;15.50;99.90;;;;;;5008436;28;20100;-69
2024/03/20 11:19:26;;;;;;;;;;;15.60;99.90;;;;;;5021459;28;20111;-69
2024/03/20 11:21:53;;;;;;;10.80;2.78;;;15.50;99.90;;;;;;5007028;28;20282;-69
2024/03/20 11:24:19;;;;;;;11.65;2.75;;;15.70;99.90;;;;;;5007643;28;20058;-69
2024/03/20 11:26:45;;;;;;;9.38;3.03;;;15.70;99.90;;;;;;5004438;28;20053;-68
2024/03/20 11:29:12;;;;;;;10.00;2.95;;;15.80;99.90;;;;;;5005101;28;20053;-69
2024/03/20 11:31:38;;;;;;;12.75;2.83;;;15.90;99.90;;;;;;4989548;28;20053;-68
2024/03/20 11:34:05;;;;;;;9.95;3.58;;;16.00;99.90;;;;;;5005672;28;20509;-69
2024/03/20 11:36:31;;;;;;;15.77;3.95;;;15.90;99.90;;;;;;5006010;28;20050;-68
2024/03/20 11:38:57;;;;;;;8.27;2.67;;;15.90;99.90;;;;;;5008305;28;20056;-67
2024/03/20 11:41:23;;;;;;;9.43;2.53;;;15.90;99.90;;;;;;4988743;28;20775;-67
2024/03/20 11:43:49;;;;;;;8.38;2.95;;;16.00;99.90;;;;;;5004604;28;20054;-68
2024/03/20 11:46:16;;;;;;;11.18;2.72;;;15.90;99.90;;;;;;5003472;28;20412;-68
2024/03/20 11:48:49;;;;;;;11.68;2.90;;;16.00;99.90;;;;;;5004559;28;20107;-68
2024/03/20 11:51:19;;;;;;;6.80;2.47;;;16.00;99.90;;;;;;4989678;28;20200;-68
2024/03/20 11:53:47;;;;;;;9.75;2.72;;;16.10;99.90;;;;;;5005567;28;20437;-68
2024/03/20 11:56:13;;;;;;;10.02;2.53;;;16.20;99.90;;;;;;4987561;28;20054;-67
2024/03/20 11:58:38;;;;;;;9.60;3.42;;;16.30;99.90;;;;;;4989914;28;20093;-68
2024/03/20 12:01:06;;;;;;;5.30;2.25;;;16.40;99.90;;;;;;5004336;28;20057;-68
2024/03/20 12:03:35;;;;;;;11.30;2.38;;;16.40;99.90;;;;;;5003490;28;20058;-64
2024/03/20 12:06:11;;;;;;;9.18;2.95;;;16.30;99.90;;;;;;4971242;28;20061;-69
2024/03/20 12:08:38;;;;;;;12.13;3.42;;;16.40;99.90;;;;;;4998449;28;20100;-69
2024/03/20 12:11:18;;;;;;;11.13;3.55;;;16.40;99.90;;;;;;5014430;28;20053;-68
2024/03/20 12:13:45;;;;;;;8.35;3.15;;;16.40;99.90;;;;;;5019854;28;20076;-68
2024/03/20 12:16:11;;;;;;;14.20;3.22;;;16.50;99.90;;;;;;5004008;28;20109;-69
2024/03/20 12:18:38;;;;;;;7.63;3.88;;;16.30;99.90;;;;;;5000901;28;20057;-69
2024/03/20 12:21:04;;;;;;;7.80;3.10;;;16.30;99.90;;;;;;5006191;28;20069;-70
2024/03/20 12:23:31;;;;;;;10.40;3.15;;;16.30;99.90;;;;;;5002074;28;20046;-68
2024/03/20 12:25:58;;;;;;;8.32;2.92;;;16.30;99.90;;;;;;5000703;28;20050;-66
2024/03/20 12:28:27;;;;;;;14.25;3.92;;;16.30;99.90;;;;;;5023935;28;20072;-68
2024/03/20 12:30:53;;;;;;;7.25;2.75;;;16.40;99.90;;;;;;5008685;28;20497;-66
2024/03/20 12:33:20;;;;;;;10.07;3.63;;;16.50;99.90;;;;;;5005424;28;20053;-69
2024/03/20 12:35:47;;;;;;;11.50;3.17;;;16.40;99.90;;;;;;4989092;28;20108;-68
2024/03/20 12:38:13;;;;;;;6.25;3.35;;;16.40;99.90;;;;;;5002560;28;20053;-68